RYR5UJ EIDW-EGKK

Flight info

Callsign RYR5UJ
Flight time N/A
Altitude 33000
Route ENDEQ1E ENDEQ Q36 EPOXI L15 KEPAD L151 DISIT
Aircraft B38M/M-SDE1FGHILORVWXY/HB1

Departure

Time 2026-05-04 16:10
Airport Dublin Airport (EIDW)

Arrival

Time N/A
Airport London Gatwick Airport (EGKK)
Time Latitude Longitude Altitude Speed Heading
2026-05-04 15:42 53.43106 -6.24858 213 ft 0 kts 185°
2026-05-04 15:56 53.43108 -6.24857 217 ft 1 kts 185°
2026-05-04 15:56 53.43125 -6.24855 216 ft 3 kts 185°
2026-05-04 15:57 53.43145 -6.24852 213 ft 3 kts 185°
2026-05-04 15:57 53.43164 -6.24849 213 ft 2 kts 185°
2026-05-04 15:57 53.43180 -6.24842 217 ft 3 kts 226°
2026-05-04 15:57 53.43186 -6.24818 213 ft 2 kts 271°
2026-05-04 15:58 53.43186 -6.24800 213 ft 2 kts 275°
2026-05-04 15:58 53.43184 -6.24768 218 ft 2 kts 275°
2026-05-04 15:58 53.43184 -6.24758 217 ft 1 kts 275°
2026-05-04 16:00 53.43184 -6.24759 213 ft 1 kts 275°
2026-05-04 16:00 53.43186 -6.24805 218 ft 9 kts 275°
2026-05-04 16:00 53.43193 -6.24935 213 ft 13 kts 276°
2026-05-04 16:01 53.43203 -6.25104 216 ft 16 kts 275°
2026-05-04 16:01 53.43208 -6.25300 213 ft 16 kts 255°
2026-05-04 16:01 53.43156 -6.25395 221 ft 11 kts 173°
2026-05-04 16:01 53.43076 -6.25340 219 ft 15 kts 156°
2026-05-04 16:02 53.42985 -6.25274 219 ft 13 kts 156°
2026-05-04 16:02 53.42896 -6.25210 219 ft 13 kts 157°
2026-05-04 16:02 53.42784 -6.25271 221 ft 11 kts 226°
2026-05-04 16:03 53.42722 -6.25376 217 ft 14 kts 225°
2026-05-04 16:03 53.42646 -6.25505 214 ft 18 kts 225°
2026-05-04 16:03 53.42550 -6.25671 213 ft 21 kts 226°
2026-05-04 16:03 53.42441 -6.25855 213 ft 22 kts 225°
2026-05-04 16:04 53.42350 -6.26013 213 ft 12 kts 226°
2026-05-04 16:04 53.42268 -6.26233 213 ft 15 kts 261°
2026-05-04 16:04 53.42274 -6.26433 213 ft 19 kts 275°
2026-05-04 16:05 53.42287 -6.26668 213 ft 22 kts 275°
2026-05-04 16:05 53.42301 -6.26934 213 ft 24 kts 275°
2026-05-04 16:05 53.42335 -6.27553 213 ft 29 kts 275°
2026-05-04 16:06 53.42354 -6.27897 217 ft 30 kts 275°
2026-05-04 16:06 53.42403 -6.28774 213 ft 28 kts 276°
2026-05-04 16:07 53.42368 -6.29067 213 ft 18 kts 205°
2026-05-04 16:07 53.42239 -6.28954 218 ft 0 kts 95°
2026-05-04 16:09 53.42217 -6.28552 215 ft 76 kts 95°
2026-05-04 16:09 53.42053 -6.25363 647 ft 170 kts 94°
2026-05-04 16:10 53.41840 -6.21355 2299 ft 186 kts 92°
2026-05-04 16:11 53.41392 -6.13542 4080 ft 256 kts 94°
2026-05-04 16:11 53.41220 -6.10477 4786 ft 270 kts 94°
2026-05-04 16:12 53.41087 -6.00867 7581 ft 282 kts 83°
2026-05-04 16:12 53.41794 -5.90952 10331 ft 292 kts 83°
2026-05-04 16:13 53.42305 -5.83774 11234 ft 329 kts 83°
2026-05-04 16:13 53.42844 -5.75910 12590 ft 346 kts 83°
2026-05-04 16:14 53.43391 -5.67776 14276 ft 355 kts 83°
2026-05-04 16:14 53.43944 -5.59465 15963 ft 361 kts 83°
2026-05-04 16:15 53.44456 -5.46685 18189 ft 378 kts 93°
2026-05-04 16:16 53.44200 -5.37805 19557 ft 384 kts 91°
2026-05-04 16:16 53.43904 -5.24278 21545 ft 392 kts 90°
2026-05-04 16:17 53.43683 -5.15065 22850 ft 398 kts 91°
2026-05-04 16:18 53.43240 -5.00999 24542 ft 407 kts 91°
2026-05-04 16:18 53.43089 -4.96241 25047 ft 409 kts 91°
2026-05-04 16:19 53.42619 -4.81812 26523 ft 417 kts 91°
2026-05-04 16:19 53.42292 -4.72035 27462 ft 422 kts 91°
2026-05-04 16:20 53.41780 -4.57227 28881 ft 428 kts 91°
2026-05-04 16:20 53.41424 -4.47208 29752 ft 433 kts 91°
2026-05-04 16:21 53.39518 -4.32350 30902 ft 448 kts 115°
2026-05-04 16:22 53.37097 -4.24628 31535 ft 450 kts 114°
2026-05-04 16:22 53.32811 -4.10714 32980 ft 447 kts 114°
2026-05-04 16:23 53.28569 -3.96971 33061 ft 441 kts 114°
2026-05-04 16:25 53.20089 -3.69727 33056 ft 441 kts 115°
2026-05-04 16:26 53.10398 -3.38258 32200 ft 431 kts 115°
2026-05-04 16:27 53.07416 -3.29383 30850 ft 442 kts 114°
2026-05-04 16:28 53.03098 -3.16014 30609 ft 429 kts 114°